sensor_id;sensor_type;location;lat;lon;timestamp;pressure;altitude;pressure_sealevel;temperature;humidity
11343;BME280;5726;42.160;24.746;2023-03-13T00:00:48;99903.09;;;10.25;42.55
11343;BME280;5726;42.160;24.746;2023-03-13T00:03:13;99908.94;;;10.37;42.28
11343;BME280;5726;42.160;24.746;2023-03-13T00:05:38;99910.59;;;10.33;42.27
11343;BME280;5726;42.160;24.746;2023-03-13T00:08:04;99905.88;;;10.15;42.40
11343;BME280;5726;42.160;24.746;2023-03-13T00:10:29;99911.03;;;10.02;42.63
11343;BME280;5726;42.160;24.746;2023-03-13T00:12:55;99912.31;;;10.09;41.86
11343;BME280;5726;42.160;24.746;2023-03-13T00:15:20;99910.22;;;9.92;42.26
11343;BME280;5726;42.160;24.746;2023-03-13T00:17:45;99907.41;;;9.58;42.70
11343;BME280;5726;42.160;24.746;2023-03-13T00:20:11;99907.69;;;9.52;42.64
11343;BME280;5726;42.160;24.746;2023-03-13T00:22:36;99911.94;;;9.68;42.27
11343;BME280;5726;42.160;24.746;2023-03-13T00:25:02;99909.00;;;9.59;42.25
11343;BME280;5726;42.160;24.746;2023-03-13T00:27:31;99915.19;;;9.50;42.12
11343;BME280;5726;42.160;24.746;2023-03-13T00:29:57;99910.69;;;9.16;43.27
11343;BME280;5726;42.160;24.746;2023-03-13T00:32:22;99909.13;;;9.05;43.59
11343;BME280;5726;42.160;24.746;2023-03-13T00:34:48;99904.03;;;8.94;44.19
11343;BME280;5726;42.160;24.746;2023-03-13T00:37:13;99904.56;;;8.91;44.12
11343;BME280;5726;42.160;24.746;2023-03-13T00:39:38;99901.34;;;8.69;44.65
11343;BME280;5726;42.160;24.746;2023-03-13T00:42:04;99897.34;;;8.66;44.70
11343;BME280;5726;42.160;24.746;2023-03-13T00:44:30;99893.34;;;8.64;45.22
11343;BME280;5726;42.160;24.746;2023-03-13T00:46:55;99891.72;;;8.53;45.20
11343;BME280;5726;42.160;24.746;2023-03-13T00:49:21;99896.53;;;8.66;45.47
11343;BME280;5726;42.160;24.746;2023-03-13T00:51:46;99899.75;;;8.53;45.94
11343;BME280;5726;42.160;24.746;2023-03-13T00:54:11;99889.59;;;8.50;45.81
11343;BME280;5726;42.160;24.746;2023-03-13T00:56:37;99894.41;;;8.78;45.37
11343;BME280;5726;42.160;24.746;2023-03-13T00:59:02;99896.00;;;8.49;45.61
11343;BME280;5726;42.160;24.746;2023-03-13T01:01:33;99894.94;;;8.65;45.32
11343;BME280;5726;42.160;24.746;2023-03-13T01:04:10;99892.94;;;8.11;46.77
11343;BME280;5726;42.160;24.746;2023-03-13T01:06:38;99893.78;;;8.16;46.38
11343;BME280;5726;42.160;24.746;2023-03-13T01:09:05;99890.03;;;8.12;46.80
11343;BME280;5726;42.160;24.746;2023-03-13T01:11:33;99892.31;;;7.84;47.34
11343;BME280;5726;42.160;24.746;2023-03-13T01:14:02;99886.84;;;7.55;48.25
11343;BME280;5726;42.160;24.746;2023-03-13T01:16:30;99885.25;;;7.54;48.51
11343;BME280;5726;42.160;24.746;2023-03-13T01:18:59;99888.09;;;7.37;49.52
11343;BME280;5726;42.160;24.746;2023-03-13T01:21:25;99888.41;;;7.46;49.46
11343;BME280;5726;42.160;24.746;2023-03-13T01:23:52;99891.91;;;7.51;49.12
11343;BME280;5726;42.160;24.746;2023-03-13T01:26:18;99892.78;;;7.20;50.10
11343;BME280;5726;42.160;24.746;2023-03-13T01:28:44;99898.91;;;7.16;50.52
11343;BME280;5726;42.160;24.746;2023-03-13T01:31:24;99890.00;;;7.01;50.70
11343;BME280;5726;42.160;24.746;2023-03-13T01:33:53;99899.19;;;7.19;50.34
11343;BME280;5726;42.160;24.746;2023-03-13T01:36:19;99911.19;;;6.81;50.99
11343;BME280;5726;42.160;24.746;2023-03-13T01:38:49;99912.50;;;6.83;51.56
11343;BME280;5726;42.160;24.746;2023-03-13T01:41:15;99915.44;;;6.82;51.33
11343;BME280;5726;42.160;24.746;2023-03-13T01:43:42;99913.75;;;6.71;51.95
11343;BME280;5726;42.160;24.746;2023-03-13T01:46:19;99915.13;;;6.73;51.17
11343;BME280;5726;42.160;24.746;2023-03-13T01:48:57;99922.97;;;6.32;52.76
11343;BME280;5726;42.160;24.746;2023-03-13T01:51:31;99932.00;;;6.31;52.84
11343;BME280;5726;42.160;24.746;2023-03-13T01:59:21;99926.75;;;6.15;53.59
11343;BME280;5726;42.160;24.746;2023-03-13T02:01:50;99935.00;;;6.14;53.74
11343;BME280;5726;42.160;24.746;2023-03-13T02:04:18;99935.50;;;6.11;54.11
11343;BME280;5726;42.160;24.746;2023-03-13T02:06:47;99940.41;;;5.97;54.37
11343;BME280;5726;42.160;24.746;2023-03-13T02:09:18;99941.56;;;6.06;54.70
11343;BME280;5726;42.160;24.746;2023-03-13T02:11:53;99947.41;;;5.82;55.82
11343;BME280;5726;42.160;24.746;2023-03-13T02:14:26;99958.66;;;5.89;55.14
11343;BME280;5726;42.160;24.746;2023-03-13T02:16:52;99955.38;;;5.82;55.74
11343;BME280;5726;42.160;24.746;2023-03-13T02:19:29;99968.88;;;5.97;56.48
11343;BME280;5726;42.160;24.746;2023-03-13T02:22:13;99967.88;;;6.03;55.42
11343;BME280;5726;42.160;24.746;2023-03-13T02:27:35;99969.53;;;6.30;54.95
11343;BME280;5726;42.160;24.746;2023-03-13T02:30:02;99981.34;;;6.39;53.62
11343;BME280;5726;42.160;24.746;2023-03-13T02:32:29;99992.47;;;6.10;54.69
11343;BME280;5726;42.160;24.746;2023-03-13T02:34:58;99992.06;;;6.22;54.15
11343;BME280;5726;42.160;24.746;2023-03-13T02:37:27;99989.78;;;6.31;54.05
11343;BME280;5726;42.160;24.746;2023-03-13T02:39:55;99989.94;;;6.46;53.16
11343;BME280;5726;42.160;24.746;2023-03-13T02:42:23;100004.47;;;6.33;53.66
11343;BME280;5726;42.160;24.746;2023-03-13T02:44:49;100004.75;;;6.37;53.73
11343;BME280;5726;42.160;24.746;2023-03-13T02:47:20;100016.13;;;6.54;53.06
11343;BME280;5726;42.160;24.746;2023-03-13T02:49:46;100017.44;;;6.51;53.21
11343;BME280;5726;42.160;24.746;2023-03-13T02:54:43;100025.06;;;6.43;52.95
11343;BME280;5726;42.160;24.746;2023-03-13T02:57:09;100011.00;;;6.47;53.35
11343;BME280;5726;42.160;24.746;2023-03-13T02:59:35;100009.41;;;6.25;53.30
11343;BME280;5726;42.160;24.746;2023-03-13T03:02:00;100018.94;;;6.21;53.85
11343;BME280;5726;42.160;24.746;2023-03-13T03:04:26;100013.44;;;6.27;53.27
11343;BME280;5726;42.160;24.746;2023-03-13T03:06:52;100014.03;;;6.34;53.70
11343;BME280;5726;42.160;24.746;2023-03-13T03:09:20;100006.44;;;6.21;53.54
11343;BME280;5726;42.160;24.746;2023-03-13T03:11:46;100016.28;;;6.21;53.59
11343;BME280;5726;42.160;24.746;2023-03-13T03:14:12;100024.50;;;6.19;53.82
11343;BME280;5726;42.160;24.746;2023-03-13T03:16:38;100033.00;;;6.38;53.26
11343;BME280;5726;42.160;24.746;2023-03-13T03:19:04;100041.06;;;6.43;52.97
11343;BME280;5726;42.160;24.746;2023-03-13T03:21:31;100046.63;;;6.20;53.61
11343;BME280;5726;42.160;24.746;2023-03-13T03:23:56;100049.25;;;5.99;54.12
11343;BME280;5726;42.160;24.746;2023-03-13T03:26:22;100044.69;;;5.78;54.75
11343;BME280;5726;42.160;24.746;2023-03-13T03:28:47;100054.47;;;5.89;54.94
11343;BME280;5726;42.160;24.746;2023-03-13T03:31:13;100061.34;;;6.06;54.19
11343;BME280;5726;42.160;24.746;2023-03-13T03:33:40;100071.41;;;5.83;54.80
11343;BME280;5726;42.160;24.746;2023-03-13T03:36:08;100071.94;;;5.52;55.76
11343;BME280;5726;42.160;24.746;2023-03-13T03:38:34;100077.22;;;5.80;55.00
11343;BME280;5726;42.160;24.746;2023-03-13T03:40:59;100077.78;;;6.03;54.15
11343;BME280;5726;42.160;24.746;2023-03-13T03:43:25;100082.34;;;5.70;54.61
11343;BME280;5726;42.160;24.746;2023-03-13T03:45:51;100081.13;;;5.61;55.35
11343;BME280;5726;42.160;24.746;2023-03-13T03:48:16;100082.66;;;5.73;55.04
11343;BME280;5726;42.160;24.746;2023-03-13T03:50:42;100084.28;;;5.58;55.97
11343;BME280;5726;42.160;24.746;2023-03-13T03:53:07;100092.19;;;5.86;57.55
11343;BME280;5726;42.160;24.746;2023-03-13T03:55:33;100092.31;;;5.63;56.14
11343;BME280;5726;42.160;24.746;2023-03-13T03:57:59;100095.00;;;5.96;54.95
11343;BME280;5726;42.160;24.746;2023-03-13T04:00:25;100099.91;;;5.71;57.63
11343;BME280;5726;42.160;24.746;2023-03-13T04:02:52;100107.41;;;6.07;54.65
11343;BME280;5726;42.160;24.746;2023-03-13T04:05:18;100104.03;;;5.62;55.96
11343;BME280;5726;42.160;24.746;2023-03-13T04:07:43;100103.44;;;5.44;56.79
11343;BME280;5726;42.160;24.746;2023-03-13T04:10:09;100114.75;;;5.51;56.88
11343;BME280;5726;42.160;24.746;2023-03-13T04:12:34;100116.03;;;5.48;56.88
11343;BME280;5726;42.160;24.746;2023-03-13T04:15:00;100113.69;;;5.52;56.70
11343;BME280;5726;42.160;24.746;2023-03-13T04:17:25;100123.63;;;5.72;56.33
11343;BME280;5726;42.160;24.746;2023-03-13T04:19:51;100125.09;;;5.80;55.09
11343;BME280;5726;42.160;24.746;2023-03-13T04:22:17;100119.56;;;5.37;55.88
11343;BME280;5726;42.160;24.746;2023-03-13T04:24:42;100134.59;;;5.32;56.38
11343;BME280;5726;42.160;24.746;2023-03-13T04:27:07;100133.34;;;5.51;56.09
11343;BME280;5726;42.160;24.746;2023-03-13T04:29:33;100132.31;;;5.52;55.55
11343;BME280;5726;42.160;24.746;2023-03-13T04:31:59;100136.19;;;5.17;56.91
11343;BME280;5726;42.160;24.746;2023-03-13T04:34:25;100142.75;;;5.25;56.79
11343;BME280;5726;42.160;24.746;2023-03-13T04:36:50;100146.00;;;5.00;57.85
11343;BME280;5726;42.160;24.746;2023-03-13T04:39:15;100152.81;;;4.96;58.46
11343;BME280;5726;42.160;24.746;2023-03-13T04:41:41;100160.50;;;5.09;58.30
11343;BME280;5726;42.160;24.746;2023-03-13T04:44:06;100159.88;;;5.62;56.62
11343;BME280;5726;42.160;24.746;2023-03-13T04:46:32;100176.13;;;5.77;56.21
11343;BME280;5726;42.160;24.746;2023-03-13T04:48:57;100167.00;;;6.06;54.65
11343;BME280;5726;42.160;24.746;2023-03-13T04:51:23;100166.56;;;6.30;53.97
11343;BME280;5726;42.160;24.746;2023-03-13T04:53:48;100171.84;;;6.46;53.91
11343;BME280;5726;42.160;24.746;2023-03-13T04:56:21;100169.91;;;6.79;52.33
11343;BME280;5726;42.160;24.746;2023-03-13T04:58:46;100173.06;;;6.98;51.83
11343;BME280;5726;42.160;24.746;2023-03-13T05:01:12;100173.00;;;7.40;50.23
11343;BME280;5726;42.160;24.746;2023-03-13T05:03:37;100173.03;;;7.19;50.93
11343;BME280;5726;42.160;24.746;2023-03-13T05:06:03;100180.09;;;7.30;50.23
11343;BME280;5726;42.160;24.746;2023-03-13T05:08:28;100188.97;;;7.66;49.28
11343;BME280;5726;42.160;24.746;2023-03-13T05:10:54;100188.22;;;7.71;48.92
11343;BME280;5726;42.160;24.746;2023-03-13T05:13:19;100183.78;;;8.12;47.64
11343;BME280;5726;42.160;24.746;2023-03-13T05:15:45;100196.50;;;8.32;47.22
11343;BME280;5726;42.160;24.746;2023-03-13T05:18:10;100196.63;;;8.52;46.54
11343;BME280;5726;42.160;24.746;2023-03-13T05:20:37;100200.44;;;8.24;47.42
11343;BME280;5726;42.160;24.746;2023-03-13T05:23:02;100202.59;;;8.27;47.42
11343;BME280;5726;42.160;24.746;2023-03-13T05:25:28;100209.22;;;8.56;46.74
11343;BME280;5726;42.160;24.746;2023-03-13T05:27:53;100211.22;;;8.75;45.70
11343;BME280;5726;42.160;24.746;2023-03-13T05:30:19;100216.13;;;9.03;44.63
11343;BME280;5726;42.160;24.746;2023-03-13T05:32:44;100210.97;;;8.82;44.88
11343;BME280;5726;42.160;24.746;2023-03-13T05:35:10;100220.44;;;8.58;45.45
11343;BME280;5726;42.160;24.746;2023-03-13T05:37:35;100220.03;;;8.35;46.78
11343;BME280;5726;42.160;24.746;2023-03-13T05:40:00;100220.53;;;8.68;46.46
11343;BME280;5726;42.160;24.746;2023-03-13T05:42:26;100219.16;;;9.21;54.76
11343;BME280;5726;42.160;24.746;2023-03-13T05:44:52;100230.50;;;10.82;59.80
11343;BME280;5726;42.160;24.746;2023-03-13T05:47:17;100231.59;;;11.48;48.44
11343;BME280;5726;42.160;24.746;2023-03-13T05:49:43;100232.59;;;12.05;43.97
11343;BME280;5726;42.160;24.746;2023-03-13T05:52:08;100229.84;;;12.72;41.79
11343;BME280;5726;42.160;24.746;2023-03-13T05:54:34;100230.94;;;12.71;38.58
11343;BME280;5726;42.160;24.746;2023-03-13T05:56:59;100238.09;;;11.86;39.81
11343;BME280;5726;42.160;24.746;2023-03-13T05:59:25;100230.25;;;11.51;40.44
11343;BME280;5726;42.160;24.746;2023-03-13T06:01:50;100234.56;;;11.47;41.13
11343;BME280;5726;42.160;24.746;2023-03-13T06:04:16;100247.22;;;11.42;39.76
11343;BME280;5726;42.160;24.746;2023-03-13T06:06:41;100243.19;;;11.87;40.43
11343;BME280;5726;42.160;24.746;2023-03-13T06:09:06;100248.78;;;11.95;39.24
11343;BME280;5726;42.160;24.746;2023-03-13T06:11:32;100248.06;;;12.18;39.30
11343;BME280;5726;42.160;24.746;2023-03-13T06:13:58;100248.50;;;12.35;38.79
11343;BME280;5726;42.160;24.746;2023-03-13T06:16:23;100254.00;;;12.20;39.00
11343;BME280;5726;42.160;24.746;2023-03-13T06:18:49;100251.94;;;12.07;39.59
11343;BME280;5726;42.160;24.746;2023-03-13T06:21:14;100250.41;;;11.43;39.78
11343;BME280;5726;42.160;24.746;2023-03-13T06:23:40;100253.50;;;12.13;39.14
11343;BME280;5726;42.160;24.746;2023-03-13T06:26:06;100252.66;;;11.80;39.37
11343;BME280;5726;42.160;24.746;2023-03-13T06:28:32;100255.09;;;11.76;39.04
11343;BME280;5726;42.160;24.746;2023-03-13T06:31:02;100259.50;;;11.57;38.68
11343;BME280;5726;42.160;24.746;2023-03-13T06:33:28;100258.34;;;11.05;39.56
11343;BME280;5726;42.160;24.746;2023-03-13T06:35:54;100261.13;;;10.71;40.34
11343;BME280;5726;42.160;24.746;2023-03-13T06:38:19;100260.06;;;10.72;40.36
11343;BME280;5726;42.160;24.746;2023-03-13T06:40:44;100258.59;;;11.04;39.75
11343;BME280;5726;42.160;24.746;2023-03-13T06:43:10;100261.81;;;11.11;39.98
11343;BME280;5726;42.160;24.746;2023-03-13T06:45:36;100258.25;;;11.30;39.53
11343;BME280;5726;42.160;24.746;2023-03-13T06:48:02;100255.00;;;11.43;39.87
11343;BME280;5726;42.160;24.746;2023-03-13T06:50:27;100250.50;;;11.77;39.00
11343;BME280;5726;42.160;24.746;2023-03-13T06:52:53;100252.22;;;11.63;39.54
11343;BME280;5726;42.160;24.746;2023-03-13T06:55:18;100258.03;;;11.80;39.48
11343;BME280;5726;42.160;24.746;2023-03-13T06:57:48;100262.50;;;12.32;38.36
11343;BME280;5726;42.160;24.746;2023-03-13T07:00:14;100260.13;;;12.54;37.38
11343;BME280;5726;42.160;24.746;2023-03-13T07:02:40;100253.88;;;12.35;37.40
11343;BME280;5726;42.160;24.746;2023-03-13T07:05:06;100251.66;;;12.09;37.80
11343;BME280;5726;42.160;24.746;2023-03-13T07:07:32;100250.88;;;11.65;38.34
11343;BME280;5726;42.160;24.746;2023-03-13T07:09:58;100251.53;;;11.91;38.50
11343;BME280;5726;42.160;24.746;2023-03-13T07:12:23;100258.47;;;11.96;38.61
11343;BME280;5726;42.160;24.746;2023-03-13T07:14:49;100252.16;;;11.73;38.98
11343;BME280;5726;42.160;24.746;2023-03-13T07:17:14;100249.41;;;11.30;40.15
11343;BME280;5726;42.160;24.746;2023-03-13T07:19:39;100239.19;;;11.32;40.51
11343;BME280;5726;42.160;24.746;2023-03-13T07:22:05;100260.28;;;11.63;40.98
11343;BME280;5726;42.160;24.746;2023-03-13T07:24:30;100255.25;;;11.94;40.73
11343;BME280;5726;42.160;24.746;2023-03-13T07:26:56;100244.00;;;11.88;43.56
11343;BME280;5726;42.160;24.746;2023-03-13T07:29:21;100262.13;;;12.10;42.74
11343;BME280;5726;42.160;24.746;2023-03-13T07:31:48;100255.38;;;12.46;40.19
11343;BME280;5726;42.160;24.746;2023-03-13T07:34:13;100255.38;;;12.74;39.25
11343;BME280;5726;42.160;24.746;2023-03-13T07:36:38;100265.69;;;12.95;38.54
11343;BME280;5726;42.160;24.746;2023-03-13T07:39:06;100256.63;;;12.87;38.26
11343;BME280;5726;42.160;24.746;2023-03-13T07:41:32;100258.19;;;12.31;39.68
11343;BME280;5726;42.160;24.746;2023-03-13T07:43:57;100250.56;;;12.43;39.42
11343;BME280;5726;42.160;24.746;2023-03-13T07:46:23;100256.13;;;12.23;39.44
11343;BME280;5726;42.160;24.746;2023-03-13T07:48:49;100254.50;;;12.22;39.96
11343;BME280;5726;42.160;24.746;2023-03-13T07:51:17;100256.97;;;12.19;40.49
11343;BME280;5726;42.160;24.746;2023-03-13T07:53:44;100254.47;;;12.55;39.97
11343;BME280;5726;42.160;24.746;2023-03-13T07:56:14;100256.22;;;12.70;39.42
11343;BME280;5726;42.160;24.746;2023-03-13T07:58:40;100241.44;;;12.67;37.86
11343;BME280;5726;42.160;24.746;2023-03-13T08:01:21;100258.13;;;12.97;38.42
11343;BME280;5726;42.160;24.746;2023-03-13T08:03:47;100250.19;;;13.11;40.23
11343;BME280;5726;42.160;24.746;2023-03-13T08:06:18;100254.69;;;12.92;39.24
11343;BME280;5726;42.160;24.746;2023-03-13T08:08:44;100234.94;;;12.73;39.57
11343;BME280;5726;42.160;24.746;2023-03-13T08:11:14;100238.47;;;12.69;39.25
11343;BME280;5726;42.160;24.746;2023-03-13T08:13:41;100234.22;;;12.63;39.37
11343;BME280;5726;42.160;24.746;2023-03-13T08:16:11;100226.53;;;12.80;38.23
11343;BME280;5726;42.160;24.746;2023-03-13T08:18:40;100232.22;;;13.01;39.38
11343;BME280;5726;42.160;24.746;2023-03-13T08:21:07;100212.81;;;13.04;38.24
11343;BME280;5726;42.160;24.746;2023-03-13T08:23:34;100212.78;;;13.28;38.73
11343;BME280;5726;42.160;24.746;2023-03-13T08:26:05;100212.91;;;13.78;37.65
11343;BME280;5726;42.160;24.746;2023-03-13T08:28:30;100215.78;;;13.99;36.74
11343;BME280;5726;42.160;24.746;2023-03-13T08:30:56;100216.03;;;14.21;35.72
11343;BME280;5726;42.160;24.746;2023-03-13T08:33:21;100213.09;;;14.49;34.96
11343;BME280;5726;42.160;24.746;2023-03-13T08:35:47;100206.06;;;14.67;35.41
11343;BME280;5726;42.160;24.746;2023-03-13T08:38:12;100208.16;;;14.96;34.17
11343;BME280;5726;42.160;24.746;2023-03-13T08:40:38;100212.25;;;14.67;34.21
11343;BME280;5726;42.160;24.746;2023-03-13T08:43:03;100209.72;;;14.71;34.37
11343;BME280;5726;42.160;24.746;2023-03-13T08:45:29;100215.13;;;14.71;33.79
11343;BME280;5726;42.160;24.746;2023-03-13T08:47:54;100220.66;;;14.79;34.02
11343;BME280;5726;42.160;24.746;2023-03-13T08:50:19;100223.19;;;15.16;33.65
11343;BME280;5726;42.160;24.746;2023-03-13T08:52:45;100217.41;;;15.22;33.39
11343;BME280;5726;42.160;24.746;2023-03-13T08:55:10;100212.75;;;15.09;33.90
11343;BME280;5726;42.160;24.746;2023-03-13T08:57:36;100212.78;;;15.36;32.60
11343;BME280;5726;42.160;24.746;2023-03-13T09:00:02;100226.28;;;15.23;33.22
11343;BME280;5726;42.160;24.746;2023-03-13T09:02:30;100220.56;;;15.37;32.80
11343;BME280;5726;42.160;24.746;2023-03-13T09:04:56;100210.28;;;15.75;32.45
11343;BME280;5726;42.160;24.746;2023-03-13T09:07:21;100223.06;;;15.82;31.39
11343;BME280;5726;42.160;24.746;2023-03-13T09:09:47;100215.22;;;15.94;30.90
11343;BME280;5726;42.160;24.746;2023-03-13T09:12:12;100218.88;;;16.12;31.44
11343;BME280;5726;42.160;24.746;2023-03-13T09:14:37;100219.81;;;16.29;31.21
11343;BME280;5726;42.160;24.746;2023-03-13T09:17:03;100218.56;;;16.57;31.00
11343;BME280;5726;42.160;24.746;2023-03-13T09:19:29;100209.41;;;16.74;30.39
11343;BME280;5726;42.160;24.746;2023-03-13T09:21:54;100211.34;;;16.22;30.56
11343;BME280;5726;42.160;24.746;2023-03-13T09:24:19;100210.75;;;16.12;31.21
11343;BME280;5726;42.160;24.746;2023-03-13T09:26:45;100216.22;;;15.98;30.32
11343;BME280;5726;42.160;24.746;2023-03-13T09:29:10;100201.06;;;15.76;29.20
11343;BME280;5726;42.160;24.746;2023-03-13T09:31:36;100206.22;;;15.64;29.56
11343;BME280;5726;42.160;24.746;2023-03-13T09:34:02;100210.22;;;15.53;29.65
11343;BME280;5726;42.160;24.746;2023-03-13T09:36:28;100210.97;;;15.31;30.28
11343;BME280;5726;42.160;24.746;2023-03-13T09:38:56;100201.44;;;15.47;29.50
11343;BME280;5726;42.160;24.746;2023-03-13T09:52:26;100174.75;;;15.06;31.00
11343;BME280;5726;42.160;24.746;2023-03-13T09:55:03;100176.31;;;15.47;30.05
11343;BME280;5726;42.160;24.746;2023-03-13T09:57:54;100170.88;;;15.60;29.91
11343;BME280;5726;42.160;24.746;2023-03-13T10:00:30;100173.88;;;15.59;29.68
11343;BME280;5726;42.160;24.746;2023-03-13T10:05:38;100160.03;;;15.12;30.03
11343;BME280;5726;42.160;24.746;2023-03-13T10:08:23;100169.25;;;14.84;28.99
11343;BME280;5726;42.160;24.746;2023-03-13T10:16:08;100155.44;;;14.85;29.84
11343;BME280;5726;42.160;24.746;2023-03-13T10:18:36;100152.38;;;14.92;29.75
11343;BME280;5726;42.160;24.746;2023-03-13T10:21:22;100161.06;;;15.02;27.63
11343;BME280;5726;42.160;24.746;2023-03-13T10:23:57;100151.94;;;14.98;27.68
11343;BME280;5726;42.160;24.746;2023-03-13T10:26:28;100147.63;;;14.57;28.71
11343;BME280;5726;42.160;24.746;2023-03-13T10:28:55;100147.56;;;14.76;29.13
11343;BME280;5726;42.160;24.746;2023-03-13T10:31:31;100150.63;;;14.56;25.13
11343;BME280;5726;42.160;24.746;2023-03-13T10:34:11;100148.84;;;14.51;24.72
11343;BME280;5726;42.160;24.746;2023-03-13T10:36:48;100152.91;;;14.22;25.68
11343;BME280;5726;42.160;24.746;2023-03-13T10:39:16;100136.88;;;14.12;26.63
11343;BME280;5726;42.160;24.746;2023-03-13T10:41:42;100153.88;;;13.94;26.43
11343;BME280;5726;42.160;24.746;2023-03-13T10:44:20;100136.50;;;14.32;26.21
11343;BME280;5726;42.160;24.746;2023-03-13T10:46:48;100138.28;;;14.23;24.62
11343;BME280;5726;42.160;24.746;2023-03-13T10:49:15;100134.09;;;14.17;23.47
11343;BME280;5726;42.160;24.746;2023-03-13T10:51:46;100127.94;;;14.30;23.94
11343;BME280;5726;42.160;24.746;2023-03-13T10:56:49;100113.13;;;14.28;25.35
11343;BME280;5726;42.160;24.746;2023-03-13T10:59:24;100113.22;;;14.23;25.34
11343;BME280;5726;42.160;24.746;2023-03-13T11:01:52;100106.66;;;14.55;25.00
11343;BME280;5726;42.160;24.746;2023-03-13T11:04:34;100099.06;;;14.71;25.08
11343;BME280;5726;42.160;24.746;2023-03-13T11:07:32;100104.09;;;15.12;24.08
11343;BME280;5726;42.160;24.746;2023-03-13T11:12:23;100095.69;;;15.14;24.62
11343;BME280;5726;42.160;24.746;2023-03-13T11:14:58;100088.41;;;15.14;24.85
11343;BME280;5726;42.160;24.746;2023-03-13T11:17:39;100086.34;;;14.98;24.32
11343;BME280;5726;42.160;24.746;2023-03-13T11:20:24;100086.09;;;15.08;23.79
11343;BME280;5726;42.160;24.746;2023-03-13T11:22:57;100081.22;;;15.45;23.55
11343;BME280;5726;42.160;24.746;2023-03-13T11:25:31;100075.22;;;15.48;22.82
11343;BME280;5726;42.160;24.746;2023-03-13T11:33:24;100073.25;;;15.83;23.20
11343;BME280;5726;42.160;24.746;2023-03-13T11:38:40;100063.53;;;15.82;22.38
11343;BME280;5726;42.160;24.746;2023-03-13T11:52:28;100047.34;;;16.21;21.74
11343;BME280;5726;42.160;24.746;2023-03-13T12:00:45;100020.47;;;15.94;21.68
11343;BME280;5726;42.160;24.746;2023-03-13T12:03:19;100010.81;;;16.02;22.31
11343;BME280;5726;42.160;24.746;2023-03-13T12:05:55;100010.06;;;15.79;21.72
11343;BME280;5726;42.160;24.746;2023-03-13T12:08:43;100003.47;;;15.64;21.58
11343;BME280;5726;42.160;24.746;2023-03-13T12:11:28;100005.84;;;15.65;22.24
11343;BME280;5726;42.160;24.746;2023-03-13T12:13:59;99998.75;;;15.47;22.06
11343;BME280;5726;42.160;24.746;2023-03-13T12:16:38;100006.56;;;15.49;22.96
11343;BME280;5726;42.160;24.746;2023-03-13T12:19:10;99993.59;;;15.37;21.38
11343;BME280;5726;42.160;24.746;2023-03-13T12:21:49;100006.06;;;15.25;20.82
11343;BME280;5726;42.160;24.746;2023-03-13T12:24:36;100010.44;;;14.99;20.55
11343;BME280;5726;42.160;24.746;2023-03-13T12:27:20;99999.03;;;15.02;21.09
11343;BME280;5726;42.160;24.746;2023-03-13T12:30:00;99987.63;;;15.49;21.02
11343;BME280;5726;42.160;24.746;2023-03-13T12:32:51;99985.28;;;15.56;21.20
11343;BME280;5726;42.160;24.746;2023-03-13T12:35:25;99981.09;;;15.50;22.08
11343;BME280;5726;42.160;24.746;2023-03-13T12:38:16;99980.53;;;15.31;22.10
11343;BME280;5726;42.160;24.746;2023-03-13T12:43:32;99989.91;;;14.98;22.36
11343;BME280;5726;42.160;24.746;2023-03-13T12:49:01;99991.06;;;15.41;21.30
11343;BME280;5726;42.160;24.746;2023-03-13T12:59:34;99992.00;;;15.01;23.15
11343;BME280;5726;42.160;24.746;2023-03-13T13:02:14;99998.28;;;15.10;22.64
11343;BME280;5726;42.160;24.746;2023-03-13T13:04:43;99987.59;;;15.05;22.53
11343;BME280;5726;42.160;24.746;2023-03-13T13:12:39;99983.13;;;15.01;23.93
11343;BME280;5726;42.160;24.746;2023-03-13T13:15:26;99984.59;;;15.20;23.12
11343;BME280;5726;42.160;24.746;2023-03-13T13:18:11;99977.78;;;15.09;22.58
11343;BME280;5726;42.160;24.746;2023-03-13T13:20:44;99980.00;;;15.29;23.19
11343;BME280;5726;42.160;24.746;2023-03-13T13:28:51;99971.19;;;15.37;23.05
11343;BME280;5726;42.160;24.746;2023-03-13T13:36:59;99946.97;;;15.32;23.32
11343;BME280;5726;42.160;24.746;2023-03-13T13:39:38;99955.94;;;15.41;23.24
11343;BME280;5726;42.160;24.746;2023-03-13T13:47:27;99949.19;;;15.30;24.05
11343;BME280;5726;42.160;24.746;2023-03-13T13:49:55;99963.38;;;15.66;23.13
11343;BME280;5726;42.160;24.746;2023-03-13T13:54:59;99950.28;;;15.51;23.02
11343;BME280;5726;42.160;24.746;2023-03-13T13:57:26;99944.09;;;15.50;22.71
11343;BME280;5726;42.160;24.746;2023-03-13T14:00:19;99934.66;;;15.78;22.31
11343;BME280;5726;42.160;24.746;2023-03-13T14:02:49;99940.53;;;15.72;22.68
11343;BME280;5726;42.160;24.746;2023-03-13T14:08:06;99945.50;;;15.48;22.39
11343;BME280;5726;42.160;24.746;2023-03-13T14:10:42;99939.81;;;15.58;22.50
11343;BME280;5726;42.160;24.746;2023-03-13T14:13:16;99935.16;;;15.50;21.83
11343;BME280;5726;42.160;24.746;2023-03-13T14:15:45;99932.91;;;15.43;22.38
11343;BME280;5726;42.160;24.746;2023-03-13T14:18:29;99931.25;;;15.34;22.37
11343;BME280;5726;42.160;24.746;2023-03-13T14:21:05;99932.97;;;15.30;21.98
11343;BME280;5726;42.160;24.746;2023-03-13T14:23:45;99941.94;;;15.39;22.32
11343;BME280;5726;42.160;24.746;2023-03-13T14:28:43;99920.84;;;15.49;22.51
11343;BME280;5726;42.160;24.746;2023-03-13T14:31:09;99912.66;;;15.63;22.50
11343;BME280;5726;42.160;24.746;2023-03-13T14:33:36;99919.63;;;15.55;22.97
11343;BME280;5726;42.160;24.746;2023-03-13T14:36:02;99925.84;;;15.12;23.42
11343;BME280;5726;42.160;24.746;2023-03-13T14:38:28;99922.78;;;15.05;23.05
11343;BME280;5726;42.160;24.746;2023-03-13T14:40:59;99923.69;;;15.44;22.81
11343;BME280;5726;42.160;24.746;2023-03-13T14:43:34;99914.91;;;15.69;22.78
11343;BME280;5726;42.160;24.746;2023-03-13T14:46:13;99922.00;;;15.57;22.87
11343;BME280;5726;42.160;24.746;2023-03-13T14:48:39;99929.44;;;15.51;23.39